sensor_id;sensor_type;location;lat;lon;timestamp;temperature;humidity
65078;DHT22;51672;51.230;-2.322;2022-10-23T00:00:53;14.60;99.90
65078;DHT22;51672;51.230;-2.322;2022-10-23T00:04:35;14.60;99.90
65078;DHT22;51672;51.230;-2.322;2022-10-23T00:08:17;14.50;99.90
65078;DHT22;51672;51.230;-2.322;2022-10-23T00:11:59;14.60;99.90
65078;DHT22;51672;51.230;-2.322;2022-10-23T00:15:41;14.50;99.90
65078;DHT22;51672;51.230;-2.322;2022-10-23T00:19:23;14.50;99.90
65078;DHT22;51672;51.230;-2.322;2022-10-23T00:23:04;14.50;99.90
65078;DHT22;51672;51.230;-2.322;2022-10-23T00:26:48;14.50;99.90
65078;DHT22;51672;51.230;-2.322;2022-10-23T00:30:31;14.50;99.90
65078;DHT22;51672;51.230;-2.322;2022-10-23T00:34:13;14.50;99.90
65078;DHT22;51672;51.230;-2.322;2022-10-23T00:37:55;14.50;99.90
65078;DHT22;51672;51.230;-2.322;2022-10-23T00:41:37;14.50;99.90
65078;DHT22;51672;51.230;-2.322;2022-10-23T00:45:25;14.50;99.90
65078;DHT22;51672;51.230;-2.322;2022-10-23T00:49:08;14.50;99.90
65078;DHT22;51672;51.230;-2.322;2022-10-23T00:52:52;14.50;99.90
65078;DHT22;51672;51.230;-2.322;2022-10-23T00:56:38;14.50;99.90
65078;DHT22;51672;51.230;-2.322;2022-10-23T01:00:27;14.50;99.90
65078;DHT22;51672;51.230;-2.322;2022-10-23T01:04:10;14.50;99.90
65078;DHT22;51672;51.230;-2.322;2022-10-23T01:08:09;14.50;99.90
65078;DHT22;51672;51.230;-2.322;2022-10-23T01:12:12;14.60;99.90
65078;DHT22;51672;51.230;-2.322;2022-10-23T01:16:06;14.60;99.90
65078;DHT22;51672;51.230;-2.322;2022-10-23T01:24:11;14.60;99.90
65078;DHT22;51672;51.230;-2.322;2022-10-23T01:28:05;14.60;99.90
65078;DHT22;51672;51.230;-2.322;2022-10-23T01:31:58;14.60;99.90
65078;DHT22;51672;51.230;-2.322;2022-10-23T01:35:48;14.60;99.90
65078;DHT22;51672;51.230;-2.322;2022-10-23T01:39:36;14.60;99.90
65078;DHT22;51672;51.230;-2.322;2022-10-23T01:43:29;14.70;99.90
65078;DHT22;51672;51.230;-2.322;2022-10-23T01:47:16;14.70;99.90
65078;DHT22;51672;51.230;-2.322;2022-10-23T01:51:02;14.70;99.90
65078;DHT22;51672;51.230;-2.322;2022-10-23T01:54:46;14.70;99.90
65078;DHT22;51672;51.230;-2.322;2022-10-23T01:58:32;14.70;99.90
65078;DHT22;51672;51.230;-2.322;2022-10-23T02:02:16;14.80;99.90
65078;DHT22;51672;51.230;-2.322;2022-10-23T02:05:59;14.80;99.90
65078;DHT22;51672;51.230;-2.322;2022-10-23T02:09:41;14.70;99.90
65078;DHT22;51672;51.230;-2.322;2022-10-23T02:22:15;14.70;99.90
65078;DHT22;51672;51.230;-2.322;2022-10-23T02:26:05;14.70;99.90
65078;DHT22;51672;51.230;-2.322;2022-10-23T02:29:55;14.70;99.90
65078;DHT22;51672;51.230;-2.322;2022-10-23T02:33:38;14.70;99.90
65078;DHT22;51672;51.230;-2.322;2022-10-23T02:37:21;14.70;99.90
65078;DHT22;51672;51.230;-2.322;2022-10-23T02:41:18;14.70;99.90
65078;DHT22;51672;51.230;-2.322;2022-10-23T02:45:16;14.70;99.90
65078;DHT22;51672;51.230;-2.322;2022-10-23T02:49:12;14.70;99.90
65078;DHT22;51672;51.230;-2.322;2022-10-23T02:53:12;14.70;99.90
65078;DHT22;51672;51.230;-2.322;2022-10-23T03:01:16;14.70;99.90
65078;DHT22;51672;51.230;-2.322;2022-10-23T03:05:02;14.70;99.90
65078;DHT22;51672;51.230;-2.322;2022-10-23T03:08:52;14.80;99.90
65078;DHT22;51672;51.230;-2.322;2022-10-23T03:12:34;14.80;99.90
65078;DHT22;51672;51.230;-2.322;2022-10-23T03:16:17;14.80;99.90
65078;DHT22;51672;51.230;-2.322;2022-10-23T03:19:59;14.80;99.90
65078;DHT22;51672;51.230;-2.322;2022-10-23T03:23:41;14.90;99.90
65078;DHT22;51672;51.230;-2.322;2022-10-23T03:27:22;14.90;99.90
65078;DHT22;51672;51.230;-2.322;2022-10-23T03:31:04;14.90;99.90
65078;DHT22;51672;51.230;-2.322;2022-10-23T03:34:46;14.80;99.90
65078;DHT22;51672;51.230;-2.322;2022-10-23T03:38:28;14.90;99.90
65078;DHT22;51672;51.230;-2.322;2022-10-23T03:42:10;14.90;99.90
65078;DHT22;51672;51.230;-2.322;2022-10-23T03:45:52;14.90;99.90
65078;DHT22;51672;51.230;-2.322;2022-10-23T03:49:36;14.90;99.90
65078;DHT22;51672;51.230;-2.322;2022-10-23T03:53:18;14.90;99.90
65078;DHT22;51672;51.230;-2.322;2022-10-23T03:57:00;14.90;99.90
65078;DHT22;51672;51.230;-2.322;2022-10-23T04:00:42;14.90;99.90
65078;DHT22;51672;51.230;-2.322;2022-10-23T04:04:24;15.00;99.90
65078;DHT22;51672;51.230;-2.322;2022-10-23T04:08:06;14.90;99.90
65078;DHT22;51672;51.230;-2.322;2022-10-23T04:11:48;15.00;99.90
65078;DHT22;51672;51.230;-2.322;2022-10-23T04:15:31;15.00;99.90
65078;DHT22;51672;51.230;-2.322;2022-10-23T04:19:12;15.00;99.90
65078;DHT22;51672;51.230;-2.322;2022-10-23T04:22:54;15.00;99.90
65078;DHT22;51672;51.230;-2.322;2022-10-23T04:26:36;15.00;99.90
65078;DHT22;51672;51.230;-2.322;2022-10-23T04:30:18;15.00;99.90
65078;DHT22;51672;51.230;-2.322;2022-10-23T04:34:00;15.00;99.90
65078;DHT22;51672;51.230;-2.322;2022-10-23T04:37:42;15.00;99.90
65078;DHT22;51672;51.230;-2.322;2022-10-23T04:41:25;15.00;99.90
65078;DHT22;51672;51.230;-2.322;2022-10-23T04:45:08;15.00;99.90
65078;DHT22;51672;51.230;-2.322;2022-10-23T04:48:50;15.00;99.90
65078;DHT22;51672;51.230;-2.322;2022-10-23T04:52:31;15.00;99.90
65078;DHT22;51672;51.230;-2.322;2022-10-23T04:56:14;15.00;99.90
65078;DHT22;51672;51.230;-2.322;2022-10-23T04:59:56;15.00;99.90
65078;DHT22;51672;51.230;-2.322;2022-10-23T05:03:38;15.00;99.90
65078;DHT22;51672;51.230;-2.322;2022-10-23T05:07:20;15.00;99.90
65078;DHT22;51672;51.230;-2.322;2022-10-23T05:11:07;15.00;99.90
65078;DHT22;51672;51.230;-2.322;2022-10-23T05:14:48;15.10;99.90
65078;DHT22;51672;51.230;-2.322;2022-10-23T05:18:34;15.10;99.90
65078;DHT22;51672;51.230;-2.322;2022-10-23T05:22:18;15.10;99.90
65078;DHT22;51672;51.230;-2.322;2022-10-23T05:26:02;15.10;99.90
65078;DHT22;51672;51.230;-2.322;2022-10-23T05:29:44;15.10;99.90
65078;DHT22;51672;51.230;-2.322;2022-10-23T05:33:26;15.10;99.90
65078;DHT22;51672;51.230;-2.322;2022-10-23T05:37:10;15.10;99.90
65078;DHT22;51672;51.230;-2.322;2022-10-23T05:40:53;15.10;99.90
65078;DHT22;51672;51.230;-2.322;2022-10-23T05:44:35;14.80;99.90
65078;DHT22;51672;51.230;-2.322;2022-10-23T05:48:18;14.50;99.90
65078;DHT22;51672;51.230;-2.322;2022-10-23T05:52:14;14.30;99.90
65078;DHT22;51672;51.230;-2.322;2022-10-23T05:56:02;14.30;99.90
65078;DHT22;51672;51.230;-2.322;2022-10-23T05:59:44;14.20;99.90
65078;DHT22;51672;51.230;-2.322;2022-10-23T06:03:26;14.10;99.90
65078;DHT22;51672;51.230;-2.322;2022-10-23T06:07:08;14.00;99.90
65078;DHT22;51672;51.230;-2.322;2022-10-23T06:10:50;14.00;99.90
65078;DHT22;51672;51.230;-2.322;2022-10-23T06:14:32;13.90;99.90
65078;DHT22;51672;51.230;-2.322;2022-10-23T06:18:14;13.90;99.90
65078;DHT22;51672;51.230;-2.322;2022-10-23T06:21:56;14.00;99.90
65078;DHT22;51672;51.230;-2.322;2022-10-23T06:25:38;13.90;99.90
65078;DHT22;51672;51.230;-2.322;2022-10-23T06:29:21;13.90;99.90
65078;DHT22;51672;51.230;-2.322;2022-10-23T06:33:03;13.80;99.90
65078;DHT22;51672;51.230;-2.322;2022-10-23T06:36:47;13.80;99.90
65078;DHT22;51672;51.230;-2.322;2022-10-23T06:40:29;13.70;99.90
65078;DHT22;51672;51.230;-2.322;2022-10-23T06:44:10;13.70;99.90
65078;DHT22;51672;51.230;-2.322;2022-10-23T06:47:53;13.70;99.90
65078;DHT22;51672;51.230;-2.322;2022-10-23T06:51:34;13.60;99.90
65078;DHT22;51672;51.230;-2.322;2022-10-23T06:55:17;13.50;99.90
65078;DHT22;51672;51.230;-2.322;2022-10-23T06:59:00;13.40;99.90
65078;DHT22;51672;51.230;-2.322;2022-10-23T07:02:42;13.30;99.90
65078;DHT22;51672;51.230;-2.322;2022-10-23T07:06:24;13.30;99.90
65078;DHT22;51672;51.230;-2.322;2022-10-23T07:10:07;13.30;99.90
65078;DHT22;51672;51.230;-2.322;2022-10-23T07:13:49;13.40;99.90
65078;DHT22;51672;51.230;-2.322;2022-10-23T07:17:30;13.30;99.90
65078;DHT22;51672;51.230;-2.322;2022-10-23T07:21:13;13.30;99.90
65078;DHT22;51672;51.230;-2.322;2022-10-23T07:24:55;13.30;99.90
65078;DHT22;51672;51.230;-2.322;2022-10-23T07:28:37;13.30;99.90
65078;DHT22;51672;51.230;-2.322;2022-10-23T07:32:19;13.40;99.90
65078;DHT22;51672;51.230;-2.322;2022-10-23T07:36:06;13.40;99.90
65078;DHT22;51672;51.230;-2.322;2022-10-23T07:39:48;13.40;99.90
65078;DHT22;51672;51.230;-2.322;2022-10-23T07:47:26;13.50;99.90
65078;DHT22;51672;51.230;-2.322;2022-10-23T07:51:12;13.60;99.90
65078;DHT22;51672;51.230;-2.322;2022-10-23T07:55:02;13.60;99.90
65078;DHT22;51672;51.230;-2.322;2022-10-23T07:58:45;13.60;99.90
65078;DHT22;51672;51.230;-2.322;2022-10-23T08:02:27;13.60;99.90
65078;DHT22;51672;51.230;-2.322;2022-10-23T08:09:59;13.60;99.90
65078;DHT22;51672;51.230;-2.322;2022-10-23T08:13:41;13.60;99.90
65078;DHT22;51672;51.230;-2.322;2022-10-23T08:17:32;13.60;99.90
65078;DHT22;51672;51.230;-2.322;2022-10-23T08:21:15;13.60;99.90
65078;DHT22;51672;51.230;-2.322;2022-10-23T08:25:03;13.50;99.90
65078;DHT22;51672;51.230;-2.322;2022-10-23T08:32:30;13.40;99.90
65078;DHT22;51672;51.230;-2.322;2022-10-23T08:36:17;13.30;99.90
65078;DHT22;51672;51.230;-2.322;2022-10-23T08:40:17;13.40;99.90
65078;DHT22;51672;51.230;-2.322;2022-10-23T08:48:44;14.90;99.90
65078;DHT22;51672;51.230;-2.322;2022-10-23T08:57:17;17.30;99.90
65078;DHT22;51672;51.230;-2.322;2022-10-23T09:17:35;23.00;99.90
65078;DHT22;51672;51.230;-2.322;2022-10-23T09:25:35;23.20;99.90
65078;DHT22;51672;51.230;-2.322;2022-10-23T09:33:25;21.60;99.90
65078;DHT22;51672;51.230;-2.322;2022-10-23T09:40:53;22.10;99.90
65078;DHT22;51672;51.230;-2.322;2022-10-23T09:48:56;23.70;99.90
65078;DHT22;51672;51.230;-2.322;2022-10-23T09:53:16;24.00;99.90
65078;DHT22;51672;51.230;-2.322;2022-10-23T10:06:00;20.60;99.90
65078;DHT22;51672;51.230;-2.322;2022-10-23T10:09:49;19.90;99.90
65078;DHT22;51672;51.230;-2.322;2022-10-23T10:29:22;18.60;99.90
65078;DHT22;51672;51.230;-2.322;2022-10-23T10:37:33;18.40;99.90
65078;DHT22;51672;51.230;-2.322;2022-10-23T11:06:34;17.30;99.90
65078;DHT22;51672;51.230;-2.322;2022-10-23T11:10:17;17.20;99.90
65078;DHT22;51672;51.230;-2.322;2022-10-23T11:14:01;17.20;99.90
65078;DHT22;51672;51.230;-2.322;2022-10-23T11:17:51;17.10;99.90
65078;DHT22;51672;51.230;-2.322;2022-10-23T11:22:00;17.00;99.90
65078;DHT22;51672;51.230;-2.322;2022-10-23T11:26:53;17.00;99.90
65078;DHT22;51672;51.230;-2.322;2022-10-23T11:39:34;17.10;99.90
65078;DHT22;51672;51.230;-2.322;2022-10-23T11:51:38;17.30;99.90
65078;DHT22;51672;51.230;-2.322;2022-10-23T11:55:24;17.30;99.90
65078;DHT22;51672;51.230;-2.322;2022-10-23T12:07:44;17.30;99.90
65078;DHT22;51672;51.230;-2.322;2022-10-23T12:15:31;17.30;99.90
65078;DHT22;51672;51.230;-2.322;2022-10-23T12:19:26;17.30;99.90
65078;DHT22;51672;51.230;-2.322;2022-10-23T12:49:24;16.90;99.90
65078;DHT22;51672;51.230;-2.322;2022-10-23T12:57:21;16.80;99.90
65078;DHT22;51672;51.230;-2.322;2022-10-23T13:01:32;16.80;99.90
65078;DHT22;51672;51.230;-2.322;2022-10-23T13:05:32;16.80;99.90
65078;DHT22;51672;51.230;-2.322;2022-10-23T13:09:39;16.90;99.90
65078;DHT22;51672;51.230;-2.322;2022-10-23T13:13:25;16.90;99.90
65078;DHT22;51672;51.230;-2.322;2022-10-23T13:17:10;16.90;99.90
65078;DHT22;51672;51.230;-2.322;2022-10-23T13:24:41;17.00;99.90
65078;DHT22;51672;51.230;-2.322;2022-10-23T13:32:11;17.00;99.90
65078;DHT22;51672;51.230;-2.322;2022-10-23T13:35:59;17.10;99.90
65078;DHT22;51672;51.230;-2.322;2022-10-23T13:40:06;17.10;99.90
65078;DHT22;51672;51.230;-2.322;2022-10-23T13:44:16;17.10;99.90
65078;DHT22;51672;51.230;-2.322;2022-10-23T13:47:58;17.20;99.90
65078;DHT22;51672;51.230;-2.322;2022-10-23T13:55:50;17.30;99.90
65078;DHT22;51672;51.230;-2.322;2022-10-23T13:59:41;17.40;99.90
65078;DHT22;51672;51.230;-2.322;2022-10-23T14:03:40;17.50;99.90
65078;DHT22;51672;51.230;-2.322;2022-10-23T14:07:28;17.50;99.90
65078;DHT22;51672;51.230;-2.322;2022-10-23T14:11:17;17.60;99.90
65078;DHT22;51672;51.230;-2.322;2022-10-23T14:15:00;17.50;99.90
65078;DHT22;51672;51.230;-2.322;2022-10-23T14:18:46;17.60;99.90
65078;DHT22;51672;51.230;-2.322;2022-10-23T14:22:30;17.60;99.90
65078;DHT22;51672;51.230;-2.322;2022-10-23T14:26:15;17.50;99.90
65078;DHT22;51672;51.230;-2.322;2022-10-23T14:30:02;17.40;99.90
65078;DHT22;51672;51.230;-2.322;2022-10-23T14:33:45;17.30;99.90
65078;DHT22;51672;51.230;-2.322;2022-10-23T14:37:31;17.20;99.90
65078;DHT22;51672;51.230;-2.322;2022-10-23T14:41:17;17.00;99.90
65078;DHT22;51672;51.230;-2.322;2022-10-23T14:45:03;16.80;99.90
65078;DHT22;51672;51.230;-2.322;2022-10-23T14:48:46;16.70;99.90
65078;DHT22;51672;51.230;-2.322;2022-10-23T14:52:37;16.70;99.90
65078;DHT22;51672;51.230;-2.322;2022-10-23T14:56:37;16.60;99.90
65078;DHT22;51672;51.230;-2.322;2022-10-23T15:00:28;16.60;99.90
65078;DHT22;51672;51.230;-2.322;2022-10-23T15:04:11;16.50;99.90
65078;DHT22;51672;51.230;-2.322;2022-10-23T15:07:56;16.50;99.90
65078;DHT22;51672;51.230;-2.322;2022-10-23T15:15:46;16.40;99.90
65078;DHT22;51672;51.230;-2.322;2022-10-23T15:19:35;16.40;99.90
65078;DHT22;51672;51.230;-2.322;2022-10-23T15:23:19;16.30;99.90
65078;DHT22;51672;51.230;-2.322;2022-10-23T15:27:02;16.30;99.90
65078;DHT22;51672;51.230;-2.322;2022-10-23T15:30:51;16.30;99.90
65078;DHT22;51672;51.230;-2.322;2022-10-23T15:34:40;16.30;99.90
65078;DHT22;51672;51.230;-2.322;2022-10-23T15:38:24;16.20;99.90
65078;DHT22;51672;51.230;-2.322;2022-10-23T15:42:06;16.10;99.90
65078;DHT22;51672;51.230;-2.322;2022-10-23T15:45:52;16.10;99.90
65078;DHT22;51672;51.230;-2.322;2022-10-23T15:49:35;16.00;99.90
65078;DHT22;51672;51.230;-2.322;2022-10-23T15:53:21;16.00;99.90
65078;DHT22;51672;51.230;-2.322;2022-10-23T15:57:08;16.00;99.90
65078;DHT22;51672;51.230;-2.322;2022-10-23T16:00:51;15.90;99.90
65078;DHT22;51672;51.230;-2.322;2022-10-23T16:04:37;15.80;99.90
65078;DHT22;51672;51.230;-2.322;2022-10-23T16:08:19;15.70;99.90
65078;DHT22;51672;51.230;-2.322;2022-10-23T16:12:00;15.70;99.90
65078;DHT22;51672;51.230;-2.322;2022-10-23T16:15:43;15.60;99.90
65078;DHT22;51672;51.230;-2.322;2022-10-23T16:19:25;15.60;99.90
65078;DHT22;51672;51.230;-2.322;2022-10-23T16:23:07;15.50;99.90
65078;DHT22;51672;51.230;-2.322;2022-10-23T16:26:49;15.40;99.90
65078;DHT22;51672;51.230;-2.322;2022-10-23T16:30:39;15.20;99.90
65078;DHT22;51672;51.230;-2.322;2022-10-23T16:34:22;14.80;99.90
65078;DHT22;51672;51.230;-2.322;2022-10-23T16:38:04;14.60;99.90
65078;DHT22;51672;51.230;-2.322;2022-10-23T16:41:46;14.50;99.90
65078;DHT22;51672;51.230;-2.322;2022-10-23T16:45:28;14.40;99.90
65078;DHT22;51672;51.230;-2.322;2022-10-23T16:49:16;14.30;99.90
65078;DHT22;51672;51.230;-2.322;2022-10-23T16:52:58;14.30;99.90
65078;DHT22;51672;51.230;-2.322;2022-10-23T16:56:40;14.30;99.90
65078;DHT22;51672;51.230;-2.322;2022-10-23T17:00:22;14.20;99.90
65078;DHT22;51672;51.230;-2.322;2022-10-23T17:04:25;14.20;99.90
65078;DHT22;51672;51.230;-2.322;2022-10-23T17:08:07;14.20;99.90
65078;DHT22;51672;51.230;-2.322;2022-10-23T17:11:49;14.10;99.90
65078;DHT22;51672;51.230;-2.322;2022-10-23T17:15:42;14.10;99.90
65078;DHT22;51672;51.230;-2.322;2022-10-23T17:19:26;14.10;99.90
65078;DHT22;51672;51.230;-2.322;2022-10-23T17:23:27;14.00;99.90
65078;DHT22;51672;51.230;-2.322;2022-10-23T17:27:09;13.90;99.90
65078;DHT22;51672;51.230;-2.322;2022-10-23T17:30:51;13.80;99.90
65078;DHT22;51672;51.230;-2.322;2022-10-23T17:34:33;13.80;99.90
65078;DHT22;51672;51.230;-2.322;2022-10-23T17:38:15;13.70;99.90
65078;DHT22;51672;51.230;-2.322;2022-10-23T17:41:58;13.60;99.90
65078;DHT22;51672;51.230;-2.322;2022-10-23T17:45:42;13.50;99.90
65078;DHT22;51672;51.230;-2.322;2022-10-23T17:49:26;13.40;99.90
65078;DHT22;51672;51.230;-2.322;2022-10-23T17:53:08;13.40;99.90
65078;DHT22;51672;51.230;-2.322;2022-10-23T17:56:50;13.30;99.90
65078;DHT22;51672;51.230;-2.322;2022-10-23T18:00:35;13.30;99.90
65078;DHT22;51672;51.230;-2.322;2022-10-23T18:04:19;13.20;99.90
65078;DHT22;51672;51.230;-2.322;2022-10-23T18:08:01;13.20;99.90
65078;DHT22;51672;51.230;-2.322;2022-10-23T18:11:44;13.10;99.90
65078;DHT22;51672;51.230;-2.322;2022-10-23T18:15:29;13.10;99.90
65078;DHT22;51672;51.230;-2.322;2022-10-23T18:19:11;13.00;99.90
65078;DHT22;51672;51.230;-2.322;2022-10-23T18:22:53;12.90;99.90
65078;DHT22;51672;51.230;-2.322;2022-10-23T18:26:35;12.90;99.90
65078;DHT22;51672;51.230;-2.322;2022-10-23T18:30:20;12.90;99.90
65078;DHT22;51672;51.230;-2.322;2022-10-23T18:34:09;12.80;99.90
65078;DHT22;51672;51.230;-2.322;2022-10-23T18:37:52;12.80;99.90
65078;DHT22;51672;51.230;-2.322;2022-10-23T18:41:37;12.80;99.90
65078;DHT22;51672;51.230;-2.322;2022-10-23T18:45:19;12.80;99.90
65078;DHT22;51672;51.230;-2.322;2022-10-23T18:49:02;12.70;99.90
65078;DHT22;51672;51.230;-2.322;2022-10-23T18:52:45;12.70;99.90
65078;DHT22;51672;51.230;-2.322;2022-10-23T18:56:27;12.60;99.90
65078;DHT22;51672;51.230;-2.322;2022-10-23T19:00:10;12.50;99.90
65078;DHT22;51672;51.230;-2.322;2022-10-23T19:03:53;12.50;99.90
65078;DHT22;51672;51.230;-2.322;2022-10-23T19:07:44;12.40;99.90
65078;DHT22;51672;51.230;-2.322;2022-10-23T19:11:27;12.40;99.90
65078;DHT22;51672;51.230;-2.322;2022-10-23T19:15:09;12.30;99.90
65078;DHT22;51672;51.230;-2.322;2022-10-23T19:18:59;12.40;99.90
65078;DHT22;51672;51.230;-2.322;2022-10-23T19:22:44;12.40;99.90
65078;DHT22;51672;51.230;-2.322;2022-10-23T19:26:29;12.40;99.90
65078;DHT22;51672;51.230;-2.322;2022-10-23T19:30:16;12.40;99.90
65078;DHT22;51672;51.230;-2.322;2022-10-23T19:34:03;12.50;99.90
65078;DHT22;51672;51.230;-2.322;2022-10-23T19:37:45;12.50;99.90
65078;DHT22;51672;51.230;-2.322;2022-10-23T19:41:27;12.60;99.90
65078;DHT22;51672;51.230;-2.322;2022-10-23T19:45:13;12.60;99.90
65078;DHT22;51672;51.230;-2.322;2022-10-23T19:48:55;12.60;99.90
65078;DHT22;51672;51.230;-2.322;2022-10-23T19:52:37;12.70;99.90
65078;DHT22;51672;51.230;-2.322;2022-10-23T19:56:19;12.70;99.90
65078;DHT22;51672;51.230;-2.322;2022-10-23T20:00:02;12.70;99.90
65078;DHT22;51672;51.230;-2.322;2022-10-23T20:03:45;12.70;99.90
65078;DHT22;51672;51.230;-2.322;2022-10-23T20:07:29;12.70;99.90
65078;DHT22;51672;51.230;-2.322;2022-10-23T20:11:17;12.70;99.90
65078;DHT22;51672;51.230;-2.322;2022-10-23T20:15:01;12.60;99.90
65078;DHT22;51672;51.230;-2.322;2022-10-23T20:18:43;12.60;99.90
65078;DHT22;51672;51.230;-2.322;2022-10-23T20:22:25;12.60;99.90
65078;DHT22;51672;51.230;-2.322;2022-10-23T20:26:09;12.50;99.90
65078;DHT22;51672;51.230;-2.322;2022-10-23T20:29:51;12.50;99.90
65078;DHT22;51672;51.230;-2.322;2022-10-23T20:33:35;12.50;99.90
65078;DHT22;51672;51.230;-2.322;2022-10-23T20:37:17;12.50;99.90
65078;DHT22;51672;51.230;-2.322;2022-10-23T20:41:00;12.50;99.90
65078;DHT22;51672;51.230;-2.322;2022-10-23T20:44:46;12.60;99.90
65078;DHT22;51672;51.230;-2.322;2022-10-23T20:48:28;12.60;99.90
65078;DHT22;51672;51.230;-2.322;2022-10-23T20:52:10;12.60;99.90
65078;DHT22;51672;51.230;-2.322;2022-10-23T20:55:51;12.60;99.90
65078;DHT22;51672;51.230;-2.322;2022-10-23T20:59:33;12.60;99.90
65078;DHT22;51672;51.230;-2.322;2022-10-23T21:03:16;12.70;99.90
65078;DHT22;51672;51.230;-2.322;2022-10-23T21:06:58;12.70;99.90
65078;DHT22;51672;51.230;-2.322;2022-10-23T21:10:57;12.70;99.90
65078;DHT22;51672;51.230;-2.322;2022-10-23T21:14:38;12.70;99.90
65078;DHT22;51672;51.230;-2.322;2022-10-23T21:18:21;12.70;99.90
65078;DHT22;51672;51.230;-2.322;2022-10-23T21:22:26;12.60;99.90
65078;DHT22;51672;51.230;-2.322;2022-10-23T21:26:08;12.60;99.90
65078;DHT22;51672;51.230;-2.322;2022-10-23T21:29:50;12.70;99.90
65078;DHT22;51672;51.230;-2.322;2022-10-23T21:33:32;12.60;99.90
65078;DHT22;51672;51.230;-2.322;2022-10-23T21:37:14;12.60;99.90
65078;DHT22;51672;51.230;-2.322;2022-10-23T21:41:07;12.60;99.90
65078;DHT22;51672;51.230;-2.322;2022-10-23T21:44:49;12.60;99.90
65078;DHT22;51672;51.230;-2.322;2022-10-23T21:48:32;12.70;99.90
65078;DHT22;51672;51.230;-2.322;2022-10-23T21:52:14;12.70;99.90
65078;DHT22;51672;51.230;-2.322;2022-10-23T21:56:02;12.80;99.90
65078;DHT22;51672;51.230;-2.322;2022-10-23T21:59:46;12.80;99.90
65078;DHT22;51672;51.230;-2.322;2022-10-23T22:03:28;12.90;99.90
65078;DHT22;51672;51.230;-2.322;2022-10-23T22:07:10;12.90;99.90
65078;DHT22;51672;51.230;-2.322;2022-10-23T22:10:55;12.90;99.90
65078;DHT22;51672;51.230;-2.322;2022-10-23T22:14:37;13.00;99.90
65078;DHT22;51672;51.230;-2.322;2022-10-23T22:18:23;13.00;99.90
65078;DHT22;51672;51.230;-2.322;2022-10-23T22:22:05;12.90;99.90
65078;DHT22;51672;51.230;-2.322;2022-10-23T22:25:47;12.90;99.90
65078;DHT22;51672;51.230;-2.322;2022-10-23T22:29:29;12.90;99.90
65078;DHT22;51672;51.230;-2.322;2022-10-23T22:33:11;12.90;99.90
65078;DHT22;51672;51.230;-2.322;2022-10-23T22:36:53;12.90;99.90
65078;DHT22;51672;51.230;-2.322;2022-10-23T22:40:36;12.90;99.90
65078;DHT22;51672;51.230;-2.322;2022-10-23T22:44:23;12.80;99.90
65078;DHT22;51672;51.230;-2.322;2022-10-23T22:48:05;12.80;99.90
65078;DHT22;51672;51.230;-2.322;2022-10-23T22:51:48;12.80;99.90
65078;DHT22;51672;51.230;-2.322;2022-10-23T22:55:30;12.90;99.90
65078;DHT22;51672;51.230;-2.322;2022-10-23T22:59:12;12.90;99.90
65078;DHT22;51672;51.230;-2.322;2022-10-23T23:02:56;12.90;99.90
65078;DHT22;51672;51.230;-2.322;2022-10-23T23:06:39;13.00;99.90
65078;DHT22;51672;51.230;-2.322;2022-10-23T23:10:21;13.00;99.90
65078;DHT22;51672;51.230;-2.322;2022-10-23T23:14:02;13.00;99.90
65078;DHT22;51672;51.230;-2.322;2022-10-23T23:17:44;13.00;99.90
65078;DHT22;51672;51.230;-2.322;2022-10-23T23:21:28;12.90;99.90
65078;DHT22;51672;51.230;-2.322;2022-10-23T23:25:10;12.90;99.90
65078;DHT22;51672;51.230;-2.322;2022-10-23T23:28:53;12.80;99.90
65078;DHT22;51672;51.230;-2.322;2022-10-23T23:32:35;12.90;99.90
65078;DHT22;51672;51.230;-2.322;2022-10-23T23:36:20;12.80;99.90
65078;DHT22;51672;51.230;-2.322;2022-10-23T23:40:03;12.80;99.90
65078;DHT22;51672;51.230;-2.322;2022-10-23T23:43:44;12.80;99.90
65078;DHT22;51672;51.230;-2.322;2022-10-23T23:47:26;12.80;99.90
65078;DHT22;51672;51.230;-2.322;2022-10-23T23:51:08;12.80;99.90
65078;DHT22;51672;51.230;-2.322;2022-10-23T23:54:50;12.70;99.90
65078;DHT22;51672;51.230;-2.322;2022-10-23T23:58:32;12.80;99.90
